Terminal Aerodrome Forecast
Issued by NWS

Home | Current Version | Previous Version | Text Only | Print | Product List | Glossary On
Versions: 1 2 3 4 5 6 7 8 9 10 11 12 13 14 15 16 17 18 19 20 21 22 23 24 25 26 27 28 29 30 31 32
672
FTUS42 KCAE 260246 AAA
TAFDNL
TAF AMD
KDNL 260246Z 2603/2624 19005KT P6SM BKN070
     FM260600 VRB04KT 6SM BR VCSH SCT025 OVC050
     FM261200 VRB05KT 4SM BR VCSH OVC015
     FM261500 02005KT 3SM -RA BR OVC012
     FM262100 02005KT 6SM BR OVC015=

USA.gov is the U.S. government's official web portal to all federal, state and local government web resources and services.